Time;durP1;ratioP1;P1;durP2;ratioP2;P2;SDS_P1;SDS_P2;PMS_P1;PMS_P2;Temp;Humidity;BMP_temperature;BMP_pressure;BME280_temperature;BME280_humidity;BME280_pressure;Samples;Min_cycle;Max_cycle;Signal;HPM_P1;HPM_P2
2021/08/10 00:01:29;;;;;;;3.13;1.50;;;;;;;15.68;72.52;100926.13;4948708;29;20087;-82
2021/08/10 00:03:55;;;;;;;6.22;1.70;;;;;;;15.57;72.97;100923.69;4948558;29;20498;-82
2021/08/10 00:06:20;;;;;;;4.47;1.80;;;;;;;15.46;73.11;100928.38;4946694;29;20031;-81
2021/08/10 00:08:45;;;;;;;3.47;1.58;;;;;;;15.37;73.31;100928.53;4948402;29;20070;-82
2021/08/10 00:11:11;;;;;;;4.43;1.80;;;;;;;15.33;73.58;100933.03;4947738;29;20055;-82
2021/08/10 00:13:36;;;;;;;5.03;1.85;;;;;;;15.29;73.89;100936.66;4947355;29;20119;-82
2021/08/10 00:16:01;;;;;;;3.80;1.70;;;;;;;15.23;73.99;100932.34;4946543;29;20044;-82
2021/08/10 00:18:27;;;;;;;4.70;1.70;;;;;;;15.26;73.93;100931.41;4946865;29;20038;-81
2021/08/10 00:20:52;;;;;;;3.55;1.60;;;;;;;15.27;74.25;100933.13;4948876;29;20031;-82
2021/08/10 00:23:18;;;;;;;3.63;1.73;;;;;;;15.26;74.43;100926.09;4964040;28;20115;-81
2021/08/10 00:25:43;;;;;;;6.00;2.03;;;;;;;15.28;74.63;100922.50;4962889;28;20066;-81
2021/08/10 00:28:08;;;;;;;3.72;1.63;;;;;;;15.31;74.52;100919.75;4946447;29;20039;-82
2021/08/10 00:30:34;;;;;;;3.38;1.40;;;;;;;15.37;74.46;100928.53;4947836;28;20110;-82
2021/08/10 00:32:59;;;;;;;3.25;1.75;;;;;;;15.46;74.58;100923.03;4961268;28;20039;-82
2021/08/10 00:35:25;;;;;;;5.45;1.70;;;;;;;15.53;74.04;100908.69;4947288;28;20035;-82
2021/08/10 00:37:50;;;;;;;3.78;1.33;;;;;;;15.48;74.13;100922.09;4946995;28;20059;-81
2021/08/10 00:40:18;;;;;;;4.38;1.40;;;;;;;15.45;74.57;100921.28;4946798;28;20043;-82
2021/08/10 00:42:44;;;;;;;5.00;2.17;;;;;;;15.38;75.24;100930.28;4959037;28;20036;-82
2021/08/10 00:45:10;;;;;;;4.78;2.25;;;;;;;15.45;75.74;100921.28;4947390;29;20395;-81
2021/08/10 00:47:38;;;;;;;4.07;1.70;;;;;;;15.46;74.36;100929.25;4945643;29;20037;-81
2021/08/10 00:50:06;;;;;;;4.18;1.75;;;;;;;15.41;74.99;100933.78;4959426;28;20048;-82
2021/08/10 00:52:36;;;;;;;4.00;1.55;;;;;;;15.29;75.65;100929.53;4947402;29;20042;-82
2021/08/10 00:55:03;;;;;;;3.92;1.60;;;;;;;15.31;75.71;100930.41;4943915;29;20083;-81
2021/08/10 00:57:29;;;;;;;4.47;1.60;;;;;;;15.39;75.82;100921.41;4963372;28;20046;-81
2021/08/10 00:59:55;;;;;;;4.95;2.25;;;;;;;15.39;76.07;100930.25;4943613;29;20039;-81
2021/08/10 01:02:21;;;;;;;3.47;1.55;;;;;;;15.39;75.74;100926.72;4960024;28;20036;-82
2021/08/10 01:04:48;;;;;;;3.38;1.65;;;;;;;15.36;75.86;100927.66;4946794;29;20074;-82
2021/08/10 01:07:19;;;;;;;3.72;1.60;;;;;;;15.29;76.42;100926.88;4957319;28;20034;-82
2021/08/10 01:09:56;;;;;;;3.58;1.83;;;;;;;15.28;76.18;100925.16;4945651;29;20042;-82
2021/08/10 01:12:30;;;;;;;3.25;1.85;;;;;;;15.39;76.37;100921.41;4944817;29;20401;-82
2021/08/10 01:15:14;;;;;;;5.35;1.92;;;;;;;15.30;78.14;100923.34;4944182;29;20031;-82
2021/08/10 01:17:45;;;;;;;5.22;2.00;;;;;;;15.32;76.73;100921.50;4928784;29;20039;-82
2021/08/10 01:20:51;;;;;;;4.22;1.90;;;;;;;15.33;76.58;100927.72;4962799;28;20114;-82
2021/08/10 01:23:24;;;;;;;7.15;2.03;;;;;;;15.24;75.91;100926.09;4961178;28;20043;-81
2021/08/10 01:26:18;;;;;;;5.30;1.90;;;;;;;15.21;76.25;100915.53;4944808;29;20067;-81
2021/08/10 01:28:52;;;;;;;4.30;2.08;;;;;;;15.12;75.49;100918.38;4945802;28;20106;-81
2021/08/10 01:31:25;;;;;;;9.05;1.88;;;;;;;15.01;77.01;100917.69;4943478;29;20067;-81
2021/08/10 01:34:26;;;;;;;4.20;2.13;;;;;;;14.97;76.92;100908.03;4944138;29;20514;-81
2021/08/10 01:37:03;;;;;;;6.18;2.30;;;;;;;14.88;76.70;100907.28;4961851;28;20042;-81
2021/08/10 01:39:32;;;;;;;5.30;2.15;;;;;;;14.85;77.18;100909.97;4959174;28;20532;-81
2021/08/10 01:42:00;;;;;;;3.55;1.73;;;;;;;14.84;76.99;100904.69;4944122;28;20525;-81
2021/08/10 01:44:27;;;;;;;4.38;2.03;;;;;;;14.84;77.24;100902.91;4947039;29;20027;-81
2021/08/10 01:46:59;;;;;;;5.25;1.67;;;;;;;14.83;77.27;100905.63;4950055;28;20524;-81
2021/08/10 01:49:26;;;;;;;3.38;1.90;;;;;;;14.77;77.44;100906.56;4964322;28;20035;-81
2021/08/10 01:51:56;;;;;;;4.05;1.95;;;;;;;14.73;77.31;100899.59;4949240;29;20111;-81
2021/08/10 01:54:23;;;;;;;6.38;1.90;;;;;;;14.73;77.44;100899.59;4929937;29;20062;-82
2021/08/10 01:56:49;;;;;;;6.03;1.92;;;;;;;14.69;77.17;100897.88;4965426;28;20028;-81
2021/08/10 01:59:19;;;;;;;5.28;1.98;;;;;;;14.63;77.37;100896.19;4947989;29;20035;-82
2021/08/10 02:01:46;;;;;;;3.60;1.50;;;;;;;14.63;77.44;100898.84;4949183;29;20032;-82
2021/08/10 02:04:18;;;;;;;5.45;2.03;;;;;;;14.63;77.47;100892.66;4963082;28;20042;-82
2021/08/10 02:06:47;;;;;;;4.53;2.33;;;;;;;14.55;77.59;100886.63;4949629;29;20045;-82
2021/08/10 02:09:17;;;;;;;4.50;1.88;;;;;;;14.55;77.90;100894.59;4966344;28;20490;-82
2021/08/10 02:11:47;;;;;;;3.80;1.67;;;;;;;14.51;77.62;100891.06;4949227;29;20030;-82
2021/08/10 02:14:16;;;;;;;4.68;2.00;;;;;;;14.48;77.49;100884.00;4961469;28;20511;-82
2021/08/10 02:16:43;;;;;;;3.35;1.73;;;;;;;14.44;77.50;100877.00;4965760;28;20539;-81
2021/08/10 02:19:13;;;;;;;4.75;1.80;;;;;;;14.40;77.50;100877.09;4946667;29;20047;-81
2021/08/10 02:21:47;;;;;;;3.90;1.77;;;;;;;14.33;77.28;100878.97;4963762;28;20036;-82
2021/08/10 02:24:53;;;;;;;4.03;1.80;;;;;;;14.24;78.41;100879.09;4934426;29;20059;-81
2021/08/10 02:27:33;;;;;;;3.55;1.80;;;;;;;14.15;77.82;100880.13;4949489;29;20039;-81
2021/08/10 02:30:04;;;;;;;8.15;1.98;;;;;;;14.15;78.32;100884.56;4963095;28;20475;-81
2021/08/10 02:32:30;;;;;;;3.95;1.70;;;;;;;14.11;78.40;100877.53;4948729;29;20122;-81
2021/08/10 02:34:58;;;;;;;5.75;1.85;;;;;;;14.05;78.42;100878.53;4964376;28;20141;-81
2021/08/10 02:37:24;;;;;;;4.15;1.65;;;;;;;14.01;78.33;100879.44;4949127;28;20435;-81
2021/08/10 02:39:53;;;;;;;4.10;1.60;;;;;;;13.98;78.30;100876.84;4945486;29;20043;-82
2021/08/10 02:42:22;;;;;;;3.72;1.60;;;;;;;13.90;78.54;100874.31;4950308;29;20505;-82
2021/08/10 02:44:50;;;;;;;6.68;2.00;;;;;;;13.84;79.09;100887.66;4946530;29;20046;-81
2021/08/10 02:47:19;;;;;;;2.83;1.55;;;;;;;13.82;78.83;100878.84;4947223;28;20047;-82
2021/08/10 02:49:44;;;;;;;3.35;1.77;;;;;;;13.81;79.21;100883.28;4950057;29;20043;-82
2021/08/10 02:52:11;;;;;;;5.70;1.80;;;;;;;13.73;79.29;100879.00;4946673;29;20020;-82
2021/08/10 02:54:37;;;;;;;3.45;1.90;;;;;;;13.72;79.82;100879.88;4949199;29;20031;-82
2021/08/10 02:57:12;;;;;;;3.28;1.60;;;;;;;13.70;79.37;100881.66;4944235;29;20174;-82
2021/08/10 02:59:47;;;;;;;4.85;2.10;;;;;;;13.66;78.88;100878.19;4948383;29;20458;-82
2021/08/10 03:02:21;;;;;;;5.03;2.47;;;;;;;13.61;78.86;100874.72;4947395;29;20183;-82
2021/08/10 03:04:54;;;;;;;4.50;2.17;;;;;;;13.52;79.97;100875.72;4963275;28;20494;-81
2021/08/10 03:07:22;;;;;;;4.28;1.83;;;;;;;13.43;80.03;100867.84;4948702;28;20530;-82
2021/08/10 03:09:50;;;;;;;3.80;1.73;;;;;;;13.37;80.18;100874.13;4960882;28;20020;-82
2021/08/10 03:12:20;;;;;;;4.45;1.92;;;;;;;13.36;80.57;100876.78;4948568;29;20027;-81
2021/08/10 03:14:48;;;;;;;2.35;1.35;;;;;;;13.36;79.92;100882.06;4946297;29;20462;-84
2021/08/10 03:17:16;;;;;;;4.72;2.10;;;;;;;13.38;79.68;100880.28;4949882;28;20039;-84
2021/08/10 03:19:44;;;;;;;6.65;2.70;;;;;;;13.41;79.72;100879.38;4947192;29;20068;-84
2021/08/10 03:22:11;;;;;;;7.05;2.80;;;;;;;13.41;80.16;100879.38;4949559;29;20038;-84
2021/08/10 03:24:37;;;;;;;2.83;1.70;;;;;;;13.41;79.89;100874.94;4946537;29;20074;-84
2021/08/10 03:27:05;;;;;;;6.40;2.00;;;;;;;13.43;79.57;100878.47;4932669;28;20031;-84
2021/08/10 03:29:35;;;;;;;7.40;2.70;;;;;;;13.47;80.38;100885.50;4947491;29;20071;-84
2021/08/10 03:32:02;;;;;;;6.63;2.78;;;;;;;13.54;80.05;100876.53;4949340;28;20031;-84
2021/08/10 03:34:27;;;;;;;5.95;2.15;;;;;;;13.59;79.73;100869.41;4967882;28;20035;-85
2021/08/10 03:36:53;;;;;;;4.85;2.10;;;;;;;13.57;79.80;100875.63;4949068;28;20047;-83
2021/08/10 03:39:20;;;;;;;3.75;1.77;;;;;;;13.53;80.26;100872.16;4954180;28;20031;-84
2021/08/10 03:41:46;;;;;;;3.90;1.60;;;;;;;13.46;80.35;100873.13;4952837;28;20039;-84
2021/08/10 03:44:14;;;;;;;3.55;1.73;;;;;;;13.47;80.16;100871.38;4934833;29;20449;-84
2021/08/10 03:46:40;;;;;;;3.70;1.70;;;;;;;13.46;80.52;100862.50;4957591;29;20147;-84
2021/08/10 03:49:06;;;;;;;6.13;3.53;;;;;;;13.43;80.38;100862.56;4951645;28;20519;-84
2021/08/10 03:51:35;;;;;;;4.88;1.80;;;;;;;13.42;80.62;100860.81;4947708;29;20023;-84
2021/08/10 03:54:00;;;;;;;3.08;1.67;;;;;;;13.41;80.65;100859.03;4948740;29;20031;-84
2021/08/10 03:56:30;;;;;;;3.95;1.90;;;;;;;13.46;80.49;100862.50;4944537;29;20608;-84
2021/08/10 03:58:58;;;;;;;4.65;2.33;;;;;;;13.53;80.65;100858.03;4946850;28;20126;-84
2021/08/10 04:01:31;;;;;;;4.60;2.22;;;;;;;13.64;80.44;100855.22;4945957;29;20036;-84
2021/08/10 04:03:58;;;;;;;4.90;2.53;;;;;;;13.65;81.10;100856.97;4946594;28;20050;-84
2021/08/10 04:06:27;;;;;;;4.80;2.45;;;;;;;13.66;81.33;100856.97;4962046;28;20046;-84
2021/08/10 04:08:53;;;;;;;5.60;2.22;;;;;;;13.72;81.45;100859.50;4944908;29;20134;-84
2021/08/10 04:11:20;;;;;;;4.63;2.65;;;;;;;13.78;80.73;100856.78;4960876;28;20168;-84
2021/08/10 04:13:49;;;;;;;3.72;2.08;;;;;;;13.81;80.52;100854.09;4944622;29;20035;-83
2021/08/10 04:16:17;;;;;;;3.33;1.98;;;;;;;13.86;80.19;100856.69;4948653;29;20042;-83
2021/08/10 04:18:43;;;;;;;7.70;2.28;;;;;;;13.86;80.05;100859.34;4960582;28;20537;-84
2021/08/10 04:21:09;;;;;;;5.43;2.97;;;;;;;13.91;80.03;100849.53;4967419;28;20027;-84
2021/08/10 04:23:34;;;;;;;4.80;2.60;;;;;;;13.93;79.83;100847.72;4961004;28;20039;-82
2021/08/10 04:26:01;;;;;;;5.03;2.88;;;;;;;13.97;80.24;100852.09;4957458;28;20097;-83
2021/08/10 04:28:27;;;;;;;5.53;2.95;;;;;;;13.93;80.96;100841.53;4948070;29;20043;-83
2021/08/10 04:30:52;;;;;;;5.68;2.65;;;;;;;13.97;80.73;100836.16;4952685;29;20176;-83
2021/08/10 04:33:18;;;;;;;5.35;3.00;;;;;;;14.07;80.59;100849.28;4950529;29;20038;-83
2021/08/10 04:35:44;;;;;;;7.10;2.70;;;;;;;14.15;80.23;100848.28;4949921;29;20035;-84
2021/08/10 04:38:10;;;;;;;5.30;2.67;;;;;;;14.25;79.90;100846.34;4959050;28;20410;-84
2021/08/10 04:40:37;;;;;;;6.20;2.75;;;;;;;14.32;80.08;100848.00;4944910;29;20036;-84
2021/08/10 04:43:19;;;;;;;;;;;;;;;14.43;80.35;100854.00;4951588;29;20035;-84
2021/08/10 04:45:47;;;;;;;6.60;2.58;;;;;;;14.56;79.19;100854.69;4959201;28;19958;-83
2021/08/10 04:48:13;;;;;;;4.60;2.78;;;;;;;14.70;79.05;100841.19;4947590;28;20042;-84
2021/08/10 04:50:38;;;;;;;4.45;2.83;;;;;;;14.76;78.32;100840.19;4957316;28;20027;-85
2021/08/10 04:53:05;;;;;;;7.25;3.40;;;;;;;14.81;78.38;100841.88;4946128;29;20078;-84
2021/08/10 04:55:30;;;;;;;6.20;3.22;;;;;;;14.97;78.59;100842.44;4947661;29;20040;-84
2021/08/10 04:57:56;;;;;;;6.68;3.22;;;;;;;15.18;77.78;100843.81;4967921;28;20075;-84
2021/08/10 05:00:23;;;;;;;7.32;3.03;;;;;;;15.31;77.66;100845.31;4950584;29;20067;-84
2021/08/10 05:02:49;;;;;;;8.00;4.43;;;;;;;15.44;77.19;100845.06;4947893;29;20478;-84
2021/08/10 05:05:15;;;;;;;6.32;3.05;;;;;;;15.54;77.01;100846.63;4953163;28;20135;-84
2021/08/10 05:07:42;;;;;;;5.72;3.00;;;;;;;15.68;76.80;100841.84;4946636;29;20038;-84
2021/08/10 05:10:11;;;;;;;5.20;2.95;;;;;;;15.81;76.32;100844.28;4961416;28;20027;-84
2021/08/10 05:12:37;;;;;;;6.72;3.47;;;;;;;15.88;76.03;100843.25;4947740;29;20030;-84
2021/08/10 05:15:06;;;;;;;6.15;3.40;;;;;;;15.98;75.64;100843.00;4950581;28;20074;-83
2021/08/10 05:17:32;;;;;;;5.97;3.03;;;;;;;16.09;75.66;100837.41;4967248;28;20051;-83
2021/08/10 05:19:57;;;;;;;5.20;3.15;;;;;;;16.24;75.15;100849.44;4950391;29;20419;-84
2021/08/10 05:22:25;;;;;;;4.50;2.75;;;;;;;16.39;74.59;100848.22;4963028;28;20046;-84
2021/08/10 05:24:52;;;;;;;5.10;2.75;;;;;;;16.54;74.22;100839.81;4967320;28;20042;-84
2021/08/10 05:27:18;;;;;;;9.02;4.38;;;;;;;16.71;73.68;100830.50;4951375;29;20039;-84
2021/08/10 05:29:45;;;;;;;10.43;6.00;;;;;;;16.86;73.67;100827.47;4948546;29;20114;-83
2021/08/10 05:32:11;;;;;;;6.95;4.35;;;;;;;17.02;73.13;100834.13;4968087;28;20444;-84
2021/08/10 05:34:40;;;;;;;9.68;3.97;;;;;;;17.18;72.36;100829.22;4967467;28;20066;-84
2021/08/10 05:37:07;;;;;;;7.45;4.20;;;;;;;17.30;72.20;100822.66;4964820;28;20062;-84
2021/08/10 05:39:36;;;;;;;3.95;2.58;;;;;;;17.39;71.51;100830.38;4950963;29;20490;-84
2021/08/10 05:42:03;;;;;;;5.00;3.25;;;;;;;17.49;71.44;100817.66;4962500;28;20036;-84
2021/08/10 05:44:29;;;;;;;6.47;2.85;;;;;;;17.61;70.99;100824.44;4948709;29;20039;-84
2021/08/10 05:46:58;;;;;;;4.70;3.03;;;;;;;17.75;70.97;100819.53;4950972;28;20031;-84
2021/08/10 05:49:23;;;;;;;5.97;2.75;;;;;;;17.86;70.90;100830.75;4969437;28;20031;-81
2021/08/10 05:51:49;;;;;;;5.15;2.97;;;;;;;17.96;71.05;100826.00;4958507;28;20505;-82
2021/08/10 05:54:15;;;;;;;5.38;2.95;;;;;;;18.04;70.44;100831.13;4970830;28;20039;-82
2021/08/10 05:56:47;;;;;;;4.90;2.38;;;;;;;18.11;69.99;100833.53;4948722;29;20049;-82
2021/08/10 05:59:13;;;;;;;8.82;3.30;;;;;;;18.17;70.22;100827.13;4958652;29;20055;-81
2021/08/10 06:01:41;;;;;;;4.55;2.60;;;;;;;18.25;69.58;100825.06;4951951;29;20067;-81
2021/08/10 06:04:08;;;;;;;5.78;2.70;;;;;;;18.29;69.59;100821.38;4955787;29;20259;-82
2021/08/10 06:06:34;;;;;;;9.70;2.85;;;;;;;18.35;69.23;100826.50;4952175;29;20062;-81
2021/08/10 06:09:02;;;;;;;7.13;2.53;;;;;;;18.44;68.78;100825.31;4948801;29;20553;-82
2021/08/10 06:11:29;;;;;;;5.05;3.10;;;;;;;18.50;68.21;100824.25;4935463;29;20051;-82
2021/08/10 06:13:54;;;;;;;5.43;2.83;;;;;;;18.58;68.11;100827.53;4970666;28;20051;-82
2021/08/10 06:16:21;;;;;;;5.43;2.88;;;;;;;18.69;67.92;100824.47;4961976;28;20063;-81
2021/08/10 06:18:46;;;;;;;5.13;2.67;;;;;;;18.78;68.05;100817.03;4952109;29;20036;-82
2021/08/10 06:21:18;;;;;;;6.00;3.20;;;;;;;18.93;67.28;100807.59;4952301;28;20099;-82
2021/08/10 06:23:43;;;;;;;3.80;2.50;;;;;;;19.11;67.07;100803.38;4950155;29;20073;-82
2021/08/10 06:26:09;;;;;;;5.60;2.42;;;;;;;19.16;67.44;100801.38;4947384;29;20035;-82
2021/08/10 06:28:34;;;;;;;3.90;2.15;;;;;;;19.27;67.41;100807.19;4949386;28;20404;-82
2021/08/10 06:31:03;;;;;;;4.80;2.28;;;;;;;19.36;67.29;100806.00;4953046;29;20035;-81
2021/08/10 06:33:29;;;;;;;4.18;2.45;;;;;;;19.42;66.52;100816.47;4973501;28;20509;-82
2021/08/10 06:35:55;;;;;;;4.90;3.13;;;;;;;19.37;66.71;100815.75;4971719;28;20135;-82
2021/08/10 06:38:25;;;;;;;5.70;3.65;;;;;;;19.41;66.33;100814.72;4967305;28;20561;-82
2021/08/10 06:40:50;;;;;;;7.15;4.40;;;;;;;19.44;66.32;100819.06;4965985;28;20031;-82
2021/08/10 06:43:15;;;;;;;5.40;3.80;;;;;;;19.42;66.44;100821.81;4946940;29;20044;-80
2021/08/10 06:45:41;;;;;;;7.05;3.63;;;;;;;19.48;66.15;100816.22;4954164;29;20054;-80
2021/08/10 06:48:08;;;;;;;6.05;3.13;;;;;;;19.56;66.00;100813.25;4950513;29;20035;-79
2021/08/10 06:50:36;;;;;;;8.57;3.42;;;;;;;19.62;65.95;100810.34;4953834;28;20407;-79
2021/08/10 06:53:02;;;;;;;7.18;2.28;;;;;;;19.64;65.73;100808.47;4960625;28;20039;-80
2021/08/10 06:55:30;;;;;;;5.45;1.92;;;;;;;19.73;65.55;100806.38;4963666;28;20115;-79
2021/08/10 06:57:56;;;;;;;5.10;2.20;;;;;;;19.79;64.96;100804.34;4949467;29;20098;-80
2021/08/10 07:00:23;;;;;;;6.05;2.63;;;;;;;19.97;65.41;100793.81;4962360;28;20110;-80
2021/08/10 07:02:49;;;;;;;5.50;2.45;;;;;;;20.08;64.64;100800.47;4937183;29;20058;-80
2021/08/10 07:05:17;;;;;;;4.43;2.20;;;;;;;20.06;64.52;100802.34;4953902;29;20031;-79
2021/08/10 07:07:43;;;;;;;5.25;2.22;;;;;;;20.23;63.82;100801.66;4972403;28;20031;-80
2021/08/10 07:10:09;;;;;;;3.58;1.80;;;;;;;20.12;63.88;100795.84;4956212;29;20035;-80
2021/08/10 07:12:35;;;;;;;3.28;2.00;;;;;;;20.26;64.00;100796.16;4958543;29;20113;-80
2021/08/10 07:15:01;;;;;;;5.20;1.98;;;;;;;20.54;62.66;100792.31;4955943;29;20035;-80
2021/08/10 07:17:26;;;;;;;4.93;2.60;;;;;;;20.46;62.70;100798.00;4954252;29;20510;-78
2021/08/10 07:19:54;;;;;;;5.45;1.90;;;;;;;20.59;62.39;100801.03;4970454;28;20067;-79
2021/08/10 07:22:23;;;;;;;5.35;2.10;;;;;;;20.86;61.78;100803.47;4962988;28;20063;-79
2021/08/10 07:24:49;;;;;;;3.88;2.25;;;;;;;21.05;60.47;100808.88;4966261;28;20483;-80
2021/08/10 07:27:15;;;;;;;4.93;2.30;;;;;;;21.20;60.26;100813.53;4947824;29;20122;-80
2021/08/10 07:29:43;;;;;;;5.05;1.90;;;;;;;21.35;59.58;100812.84;4962309;28;20039;-79
2021/08/10 07:32:10;;;;;;;4.97;1.98;;;;;;;21.44;58.66;100807.06;4951508;29;20114;-80
2021/08/10 07:34:36;;;;;;;6.28;2.45;;;;;;;21.44;58.60;100817.78;4949150;29;20498;-80
2021/08/10 07:37:02;;;;;;;4.78;1.75;;;;;;;21.58;58.26;100809.09;4962160;28;20038;-80
2021/08/10 07:39:28;;;;;;;5.53;1.98;;;;;;;21.70;58.40;100806.78;4949862;28;20041;-80
2021/08/10 07:41:54;;;;;;;4.22;1.50;;;;;;;21.51;58.24;100802.28;4962637;28;20126;-80
2021/08/10 07:44:19;;;;;;;3.72;1.38;;;;;;;21.41;58.39;100796.47;4948773;29;20045;-80
2021/08/10 07:46:48;;;;;;;14.75;2.65;;;;;;;21.50;57.79;100796.97;4959468;28;20027;-80
2021/08/10 07:49:19;;;;;;;4.40;1.70;;;;;;;21.70;57.25;100790.66;4967613;28;20051;-80
2021/08/10 07:51:45;;;;;;;4.63;1.63;;;;;;;21.90;56.69;100777.09;4960439;28;20491;-80
2021/08/10 07:54:10;;;;;;;2.97;1.48;;;;;;;22.04;55.95;100782.69;4947495;29;20131;-80
2021/08/10 07:56:36;;;;;;;4.88;1.67;;;;;;;22.08;55.50;100778.00;4949063;29;20047;-80
2021/08/10 07:59:02;;;;;;;5.18;2.17;;;;;;;22.03;55.67;100772.00;4966621;28;20031;-80
2021/08/10 08:01:27;;;;;;;4.40;1.70;;;;;;;22.02;55.61;100760.38;4953502;29;20031;-80
2021/08/10 08:03:53;;;;;;;4.53;2.00;;;;;;;22.07;55.43;100762.84;4964258;28;20058;-80
2021/08/10 08:06:19;;;;;;;3.58;1.67;;;;;;;21.98;56.07;100764.19;4950513;28;20035;-80
2021/08/10 08:08:44;;;;;;;9.25;5.95;;;;;;;21.94;56.48;100761.72;4965885;28;20039;-80
2021/08/10 08:11:14;;;;;;;5.13;2.20;;;;;;;21.78;56.52;100767.84;4962471;28;20027;-81
2021/08/10 08:13:40;;;;;;;4.88;1.90;;;;;;;21.88;56.77;100771.81;4953842;29;20031;-80
2021/08/10 08:16:05;;;;;;;4.93;1.60;;;;;;;21.87;57.27;100783.50;4945528;29;20094;-81
2021/08/10 08:18:31;;;;;;;3.33;1.45;;;;;;;21.90;57.46;100782.47;4948986;29;20086;-80
2021/08/10 08:20:56;;;;;;;5.90;2.03;;;;;;;22.02;56.25;100783.69;4947823;29;20062;-80
2021/08/10 08:23:28;;;;;;;5.70;1.93;;;;;;;22.04;55.74;100780.00;4962536;28;20042;-81
2021/08/10 08:25:55;;;;;;;6.88;2.28;;;;;;;22.05;55.64;100787.09;4932739;29;20410;-81
2021/08/10 08:28:21;;;;;;;5.80;2.38;;;;;;;21.74;55.62;100786.88;4942861;28;20041;-81
2021/08/10 08:30:47;;;;;;;4.38;1.95;;;;;;;21.70;56.57;100791.53;4962666;28;20036;-81
2021/08/10 08:33:14;;;;;;;5.47;2.00;;;;;;;21.76;56.27;100783.16;4947621;29;20054;-81
2021/08/10 08:35:40;;;;;;;5.60;2.10;;;;;;;21.71;56.75;100792.38;4959208;28;20032;-81
2021/08/10 08:38:07;;;;;;;4.72;1.88;;;;;;;21.67;56.64;100786.31;4962511;28;20090;-81
2021/08/10 08:40:36;;;;;;;5.57;1.92;;;;;;;21.65;56.75;100788.19;4947028;29;20687;-81
2021/08/10 08:43:01;;;;;;;6.90;1.88;;;;;;;21.63;57.53;100779.31;4947954;29;20036;-80
2021/08/10 08:45:28;;;;;;;6.47;1.90;;;;;;;21.51;56.92;100785.28;4946187;29;20039;-81
2021/08/10 08:47:54;;;;;;;4.47;1.83;;;;;;;21.50;57.82;100780.84;4959647;28;20445;-79
2021/08/10 08:50:23;;;;;;;5.18;1.95;;;;;;;21.46;57.68;100788.19;4963367;28;20032;-80
2021/08/10 08:52:50;;;;;;;5.72;2.40;;;;;;;21.50;57.52;100783.53;4945734;29;20039;-81
2021/08/10 08:55:17;;;;;;;6.68;2.80;;;;;;;21.47;58.27;100786.38;4960113;28;20122;-81
2021/08/10 08:57:43;;;;;;;8.07;3.00;;;;;;;21.28;58.84;100792.59;4947981;29;20086;-81
2021/08/10 09:00:14;;;;;;;8.90;3.03;;;;;;;21.25;59.07;100795.41;4960970;28;20578;-80
2021/08/10 09:02:40;;;;;;;4.43;2.50;;;;;;;21.19;60.04;100811.78;4960092;28;20039;-80
2021/08/10 09:05:08;;;;;;;4.20;2.20;;;;;;;20.97;61.44;100802.03;4946817;29;20043;-79
2021/08/10 09:07:34;;;;;;;5.38;2.40;;;;;;;20.81;61.99;100811.72;4958568;28;20032;-81
2021/08/10 09:10:29;;;;;;;4.57;2.42;;;;;;;20.54;63.37;100813.75;4945969;29;20075;-80
2021/08/10 09:12:56;;;;;;;7.63;2.42;;;;;;;20.37;64.63;100811.78;4944208;29;20043;-81
2021/08/10 09:15:38;;;;;;;6.47;2.58;;;;;;;20.23;64.41;100828.44;4946346;29;20119;-81
2021/08/10 09:18:15;;;;;;;7.32;2.40;;;;;;;19.89;64.49;100837.00;4944547;29;20122;-80
2021/08/10 09:21:10;;;;;;;5.38;2.22;;;;;;;19.41;67.32;100825.44;4945011;29;20495;-80
2021/08/10 09:23:43;;;;;;;5.88;3.15;;;;;;;19.09;69.16;100831.97;4946436;29;20380;-80
2021/08/10 09:26:10;;;;;;;9.05;3.13;;;;;;;18.82;70.95;100858.78;4944497;29;20475;-80
2021/08/10 09:28:36;;;;;;;6.05;2.75;;;;;;;18.40;73.89;100872.66;4943654;28;20055;-78
2021/08/10 09:31:28;;;;;;;6.40;2.80;;;;;;;17.95;78.75;100877.69;4946763;29;20054;-77
2021/08/10 09:34:02;;;;;;;7.28;3.38;;;;;;;17.62;79.71;100892.88;4944202;29;20042;-76
2021/08/10 09:36:28;;;;;;;6.32;2.70;;;;;;;17.27;82.00;100889.44;4940817;29;20040;-76
2021/08/10 09:38:56;;;;;;;5.55;2.70;;;;;;;17.03;81.88;100883.00;4943475;28;20027;-75
2021/08/10 09:41:22;;;;;;;6.63;2.63;;;;;;;16.73;81.82;100869.53;4940651;29;20110;-75
2021/08/10 09:43:49;;;;;;;6.90;2.92;;;;;;;16.57;84.42;100842.41;4943422;29;20488;-77
2021/08/10 09:46:20;;;;;;;13.95;2.90;;;;;;;16.45;84.82;100848.03;4941733;29;20462;-76
2021/08/10 09:48:49;;;;;;;7.65;3.08;;;;;;;16.37;85.26;100874.00;4942219;29;20478;-76
2021/08/10 09:51:22;;;;;;;6.72;3.10;;;;;;;16.39;85.65;100864.19;4944180;29;20031;-77
2021/08/10 09:53:54;;;;;;;;;;;;;;;16.37;85.07;100872.25;4940874;29;20036;-76
2021/08/10 09:56:19;;;;;;;7.32;2.47;;;;;;;16.43;84.25;100860.56;4942447;29;19941;-76
2021/08/10 09:58:59;;;;;;;6.32;2.63;;;;;;;16.47;83.83;100846.22;4950598;28;20495;-75
2021/08/10 10:01:35;;;;;;;8.52;3.20;;;;;;;16.51;84.66;100855.91;4943168;29;20090;-74
2021/08/10 10:04:08;;;;;;;5.47;2.28;;;;;;;16.49;83.10;100851.53;4964850;28;20032;-76
2021/08/10 10:06:34;;;;;;;6.13;2.45;;;;;;;16.55;83.45;100860.22;4946672;29;20057;-77
2021/08/10 10:09:00;;;;;;;7.30;2.55;;;;;;;16.70;83.15;100855.41;4961124;28;20046;-76
2021/08/10 10:11:27;;;;;;;5.05;2.28;;;;;;;16.73;82.47;100861.53;4962104;28;20031;-76
2021/08/10 10:13:54;;;;;;;6.20;2.28;;;;;;;16.72;82.53;100867.78;4962187;28;20058;-75
2021/08/10 10:16:20;;;;;;;4.90;2.22;;;;;;;16.72;83.00;100885.56;4948258;28;20138;-77
2021/08/10 10:18:48;;;;;;;10.00;2.65;;;;;;;16.61;83.70;100896.47;4947658;29;20040;-77
2021/08/10 10:21:21;;;;;;;5.75;1.95;;;;;;;16.55;83.72;100892.19;4955001;29;20419;-77
2021/08/10 10:23:47;;;;;;;;;;;;;;;16.43;84.40;100884.53;4967873;28;20063;-77
2021/08/10 10:26:13;;;;;;;7.72;2.42;;;;;;;16.43;84.50;100895.19;4964878;28;19915;-78
2021/08/10 10:28:39;;;;;;;7.38;2.88;;;;;;;16.39;83.97;100897.03;4945988;28;20046;-78
2021/08/10 10:31:05;;;;;;;9.32;2.53;;;;;;;16.32;83.82;100908.75;4971733;28;20039;-78
2021/08/10 10:33:33;;;;;;;10.43;2.80;;;;;;;16.07;86.45;100876.50;4949336;29;20478;-76
2021/08/10 10:36:01;;;;;;;7.47;2.58;;;;;;;15.75;88.31;100880.75;4946815;28;20035;-76
2021/08/10 10:38:26;;;;;;;8.70;2.80;;;;;;;15.70;88.80;100890.63;4941529;28;20051;-77
2021/08/10 10:40:54;;;;;;;6.55;2.50;;;;;;;15.69;89.26;100896.88;4944719;29;20043;-76
2021/08/10 10:43:24;;;;;;;5.85;2.38;;;;;;;15.75;89.86;100883.44;4947902;29;20039;-77
2021/08/10 10:45:53;;;;;;;9.43;2.83;;;;;;;15.85;90.03;100891.19;4945781;29;20111;-75
2021/08/10 10:48:27;;;;;;;7.05;2.78;;;;;;;15.98;87.94;100890.91;4945217;28;20027;-75
2021/08/10 10:51:13;;;;;;;7.30;2.63;;;;;;;16.11;88.20;100886.19;4947961;29;20043;-76
2021/08/10 10:53:40;;;;;;;9.80;2.70;;;;;;;16.18;87.41;100898.41;4946402;29;20043;-75
2021/08/10 10:56:33;;;;;;;6.82;3.00;;;;;;;16.27;88.32;100891.13;4944733;28;20043;-76
2021/08/10 10:59:24;;;;;;;9.98;3.65;;;;;;;16.42;88.32;100890.75;4945323;28;20118;-76
2021/08/10 11:01:52;;;;;;;7.20;3.35;;;;;;;16.57;87.28;100884.16;4946085;29;20048;-76
2021/08/10 11:04:17;;;;;;;7.88;3.45;;;;;;;16.56;85.46;100885.09;4944846;28;20057;-76
2021/08/10 11:06:47;;;;;;;5.55;3.15;;;;;;;16.55;87.49;100891.31;4946291;29;20565;-75
2021/08/10 11:09:37;;;;;;;6.22;3.17;;;;;;;16.63;87.23;100895.53;4944320;28;20506;-76
2021/08/10 11:12:05;;;;;;;7.70;3.60;;;;;;;16.68;86.79;100889.22;4946328;29;20406;-76
2021/08/10 11:14:39;;;;;;;5.75;3.72;;;;;;;16.78;86.82;100893.44;4944113;28;20042;-76
2021/08/10 11:17:07;;;;;;;6.43;3.60;;;;;;;16.80;86.15;100892.47;4942837;29;20039;-76
2021/08/10 11:19:34;;;;;;;6.93;3.42;;;;;;;16.85;85.95;100889.72;4946483;29;20046;-75
2021/08/10 11:22:15;;;;;;;7.60;3.20;;;;;;;16.92;85.79;100891.28;4944623;29;20058;-75
2021/08/10 11:25:27;;;;;;;7.13;3.35;;;;;;;16.88;86.18;100891.41;4944650;29;20043;-77
2021/08/10 11:27:52;;;;;;;5.55;3.25;;;;;;;16.98;85.33;100875.13;4919346;29;20047;-77
2021/08/10 11:30:20;;;;;;;5.75;3.17;;;;;;;17.06;85.43;100865.13;4945483;29;20051;-76
2021/08/10 11:32:50;;;;;;;6.95;3.22;;;;;;;17.26;84.77;100858.34;4985607;23;20082;-71
2021/08/10 11:35:22;;;;;;;6.97;3.50;;;;;;;17.52;84.34;100861.13;4984011;28;20041;-74